Latest Weather Observations for Newman Airport

IDW60801

Issued at 9:53 pm WST Monday 29 November 2021 (issued every 10 minutes, with the page automatically refreshed every 10 minutes)

About weather observations | Map of weather stations | Latest weather observations for WA | Other Formats
Station Details ID: 007176 Name: NEWMAN AERO Lat: -23.42 Lon: 119.80 Height: 524.0 m
Data from the previous 72 hours. | See also: Recent months at Newman Airport
Date/Time
WST
Temp
°C
App
Temp
°C
Dew
Point
°C
Rel
Hum
%
Delta-T
°C
Wind Press
QNH
hPa
Press
MSL
hPa
Rain since
9am
mm
Dir  Spd
km/h
Gust
km/h
Spd
kts
Gust
kts
29/09:30pm 26.8 23.2 -2.0 15 13.3 SW 7 9 4 5 1012.1 1008.1 0.0
29/09:00pm 27.3 23.6 -2.5 14 13.7 SW 7 11 4 6 1012.0 1008.0 0.0
29/08:30pm 28.1 24.6 -2.9 13 14.2 SW 6 9 3 5 1011.9 1007.9 0.0
29/08:00pm 31.0 26.8 -4.1 10 16.2 SW 9 11 5 6 1011.5 1007.6 0.0
29/07:30pm 32.0 28.3 -4.8 9 16.8 S 6 9 3 5 1011.1 1007.2 0.0
29/07:00pm 34.1 29.8 -4.8 8 18.1 S 9 11 5 6 1010.8 1006.8 0.0
29/06:30pm 36.4 31.1 -6.9 6 19.8 SSW 13 20 7 11 1010.4 1006.4 0.0
29/06:00pm 37.3 32.1 -6.3 6 20.3 SSW 13 20 7 11 1010.1 1006.1 0.0
29/05:30pm 37.9 32.0 -5.8 6 20.5 S 17 22 9 12 1009.6 1005.7 0.0
29/05:00pm 38.1 31.8 -5.7 6 20.7 SSW 19 32 10 17 1009.5 1005.6 0.0
29/04:30pm 38.3 33.2 -5.5 6 20.7 SW 13 26 7 14 1009.5 1005.6 0.0
29/04:00pm 37.6 33.0 -4.0 7 20.1 SSW 11 20 6 11 1009.8 1005.8 0.0
29/03:30pm 38.6 33.1 -5.3 6 20.9 SSW 15 30 8 16 1010.0 1006.0 0.0
29/03:00pm 38.9 33.1 -5.1 6 21.1 W 17 26 9 14 1010.2 1006.2 0.0
29/02:30pm 38.2 31.9 -5.6 6 20.7 WSW 19 26 10 14 1010.4 1006.4 0.0
29/02:00pm 37.5 32.9 -4.1 7 20.1 SW 11 32 6 17 1010.8 1006.8 0.0
29/01:30pm 37.3 31.5 -4.2 7 19.9 SW 17 28 9 15 1011.1 1007.2 0.0
29/01:00pm 37.7 31.6 -3.9 7 20.1 SSW 19 30 10 16 1011.6 1007.7 0.0
29/12:30pm 36.5 31.8 -4.8 7 19.5 SSE 11 22 6 12 1012.0 1008.0 0.0
29/12:00pm 36.1 31.6 -3.3 8 19.0 SE 11 24 6 13 1012.7 1008.7 0.0
29/11:30am 35.7 31.5 -3.6 8 18.8 NW 9 17 5 9 1013.1 1009.2 0.0
29/11:00am 36.5 32.8 -3.0 8 19.2 E 7 24 4 13 1013.6 1009.7 0.0
29/10:30am 34.6 30.1 -2.9 9 18.0 ESE 11 20 6 11 1014.0 1010.0 0.0
29/10:00am 34.4 29.5 -3.0 9 17.9 ENE 13 22 7 12 1014.4 1010.4 0.0
29/09:30am 33.6 27.9 -3.6 9 17.6 ENE 17 30 9 16 1014.5 1010.6 0.0
29/09:00am 32.8 26.8 -2.8 10 16.9 NE 19 26 10 14 1014.7 1010.8 0.0
29/08:30am 32.3 26.1 -3.2 10 16.7 ENE 20 28 11 15 1014.6 1010.7 0.0
29/08:00am 30.8 25.7 -1.9 12 15.6 ENE 15 20 8 11 1014.8 1010.9 0.0
29/07:30am 28.2 24.1 0.0 16 13.6 E 11 17 6 9 1014.8 1010.9 0.0
29/07:00am 26.3 22.6 0.1 18 12.5 E 9 13 5 7 1014.8 1010.9 0.0
29/06:30am 23.9 20.9 0.9 22 11.0 SW 6 7 3 4 1014.5 1010.6 0.0
29/06:00am 20.8 18.4 2.1 29 8.9 SW 4 7 2 4 1014.3 1010.3 0.0
29/05:30am 18.1 15.2 1.2 32 7.7 SW 6 7 3 4 1014.0 1010.0 0.0
29/05:00am 17.4 14.2 1.0 33 7.4 SW 7 9 4 5 1013.5 1009.6 0.0
29/04:30am 17.8 14.2 0.9 32 7.7 WSW 9 9 5 5 1013.2 1009.3 0.0
29/04:00am 18.2 15.0 0.8 31 7.9 WSW 7 9 4 5 1012.9 1009.0 0.0
29/03:30am 19.0 16.0 0.6 29 8.4 SSW 6 7 3 4 1012.7 1008.7 0.0
29/03:00am 19.1 15.9 0.7 29 8.4 SSW 7 7 4 4 1012.6 1008.6 0.0
29/02:30am 20.0 17.0 0.5 27 9.0 S 6 7 3 4 1012.6 1008.6 0.0
29/02:00am 19.9 17.6 0.4 27 8.9 S 2 7 1 4 1012.6 1008.6 0.0
29/01:30am 20.2 18.2 -0.4 25 9.3 CALM 0 0 0 0 1012.6 1008.6 0.0
29/01:00am 21.2 18.1 -0.1 24 9.8 S 6 9 3 5 1012.8 1008.9 0.0
29/12:30am 22.1 18.6 -1.2 21 10.5 WSW 7 9 4 5 1013.1 1009.2 0.0
29/12:00am 21.8 18.0 -0.8 22 10.3 SSW 9 9 5 5 1013.3 1009.4 0.0
 
Date/Time
WST
Temp
°C
App
Temp
°C
Dew
Point
°C
Rel
Hum
%
Delta-T
°C
Wind Press
QNH
hPa
Press
MSL
hPa
Rain since
9am
mm
Dir  Spd
km/h
Gust
km/h
Spd
kts
Gust
kts
28/11:30pm 22.4 18.9 -1.0 21 10.6 S 7 9 4 5 1013.3 1009.4 0.0
28/11:00pm 22.8 19.5 -1.3 20 10.9 SE 6 7 3 4 1013.4 1009.5 0.0
28/10:30pm 24.5 21.7 -2.9 16 12.2 SE 2 6 1 3 1013.8 1009.8 0.0
28/10:00pm 26.2 22.1 -3.4 14 13.3 SE 9 11 5 6 1013.8 1009.8 0.0
28/09:30pm 26.9 22.3 -3.8 13 13.7 SE 11 13 6 7 1013.5 1009.6 0.0
28/09:00pm 27.8 23.2 -4.2 12 14.3 SE 11 11 6 6 1013.3 1009.4 0.0
28/08:30pm 29.5 24.4 -5.3 10 15.5 SE 13 15 7 8 1013.1 1009.2 0.0
28/08:00pm 30.3 25.6 -4.7 10 15.8 SSE 11 15 6 8 1012.9 1009.0 0.0
28/07:30pm 31.7 27.0 -5.0 9 16.7 SSE 11 13 6 7 1012.6 1008.6 0.0
28/07:00pm 33.3 28.4 -3.8 9 17.4 SE 13 17 7 9 1012.3 1008.3 0.0
28/06:30pm 34.7 29.7 -4.4 8 18.4 SSE 13 19 7 10 1012.0 1008.0 0.0
28/06:00pm 35.8 30.1 -3.5 8 18.9 SSE 17 20 9 11 1011.4 1007.5 0.0
28/05:30pm 36.1 29.9 -3.3 8 19.0 S 20 30 11 16 1011.1 1007.2 0.0
28/05:00pm 36.3 31.6 -5.0 7 19.5 SSE 11 19 6 10 1011.1 1007.2 0.0
28/04:30pm 37.1 33.1 -2.6 8 19.5 SW 9 20 5 11 1010.8 1006.8 0.0
28/04:00pm 36.7 32.1 -1.3 9 19.0 S 13 24 7 13 1011.0 1007.1 0.0
28/03:30pm 36.5 33.0 -1.4 9 18.9 W 7 13 4 7 1011.4 1007.5 0.0
28/03:00pm 36.8 32.6 -1.2 9 19.1 WSW 11 20 6 11 1011.6 1007.7 0.0
28/02:30pm 35.7 30.8 -0.6 10 18.3 SSW 15 24 8 13 1012.0 1008.0 0.0
28/02:00pm 36.0 32.2 -0.4 10 18.4 SSE 9 19 5 10 1012.4 1008.4 0.0
28/01:30pm 34.8 31.1 0.0 11 17.6 ESE 9 20 5 11 1013.0 1009.1 0.0
28/01:00pm 35.0 31.3 0.2 11 17.7 S 9 19 5 10 1013.4 1009.5 0.0
28/12:30pm 34.0 28.9 0.6 12 16.9 SSE 17 28 9 15 1014.0 1010.0 0.0
28/12:00pm 33.9 28.8 0.5 12 16.9 SSE 17 28 9 15 1014.4 1010.4 0.0
28/11:30am 33.8 28.8 1.6 13 16.6 ENE 17 26 9 14 1015.0 1011.1 0.0
28/11:00am 32.9 28.2 0.9 13 16.2 E 15 22 8 12 1015.5 1011.6 0.0
28/10:30am 31.6 26.7 1.8 15 15.2 E 17 28 9 15 1016.1 1012.1 0.0
28/10:00am 31.7 26.6 2.8 16 15.0 E 19 26 10 14 1016.4 1012.5 0.0
28/09:30am 30.3 25.1 3.4 18 14.0 E 20 30 11 16 1016.7 1012.8 0.0
28/09:00am 30.0 24.7 3.1 18 13.9 E 20 28 11 15 1017.0 1013.1 0.0
28/08:30am 28.8 22.5 3.6 20 13.0 ENE 26 35 14 19 1017.1 1013.2 0.0
28/08:00am 27.8 21.1 3.5 21 12.4 E 28 37 15 20 1017.1 1013.2 0.0
28/07:30am 26.6 20.7 3.8 23 11.7 E 24 32 13 17 1017.2 1013.3 0.0
28/07:00am 25.9 20.4 3.8 24 11.2 E 22 32 12 17 1017.1 1013.2 0.0
28/06:30am 24.8 19.9 4.0 26 10.6 E 19 30 10 16 1016.9 1013.0 0.0
28/06:00am 23.7 20.3 4.1 28 9.9 E 11 17 6 9 1016.7 1012.8 0.0
28/05:30am 22.7 19.3 3.8 29 9.4 E 11 17 6 9 1016.2 1012.2 0.0
28/05:00am 22.5 19.0 3.6 29 9.4 ESE 11 13 6 7 1015.4 1011.5 0.0
28/04:30am 23.1 19.5 3.1 27 9.9 E 11 19 6 10 1015.1 1011.2 0.0
28/04:00am 23.6 19.6 3.0 26 10.2 ESE 13 17 7 9 1014.7 1010.8 0.0
28/03:30am 24.1 19.4 2.9 25 10.5 SE 17 24 9 13 1014.4 1010.4 0.0
28/03:00am 24.5 19.6 2.0 23 11.0 ESE 17 24 9 13 1014.3 1010.3 0.0
28/02:30am 24.8 20.3 2.3 23 11.1 ESE 15 20 8 11 1014.2 1010.2 0.0
28/02:00am 25.4 20.8 1.5 21 11.6 ESE 15 19 8 10 1014.2 1010.2 0.0
28/01:30am 26.2 21.2 1.5 20 12.1 ESE 17 24 9 13 1014.2 1010.2 0.0
28/01:00am 26.6 21.6 1.1 19 12.4 ESE 17 24 9 13 1014.1 1010.1 0.0
28/12:30am 27.2 21.7 0.8 18 12.9 ESE 19 28 10 15 1014.2 1010.2 0.0
28/12:00am 27.4 21.8 0.2 17 13.1 ESE 19 26 10 14 1014.5 1010.6 0.0
 
Date/Time
WST
Temp
°C
App
Temp
°C
Dew
Point
°C
Rel
Hum
%
Delta-T
°C
Wind Press
QNH
hPa
Press
MSL
hPa
Rain since
9am
mm
Dir  Spd
km/h
Gust
km/h
Spd
kts
Gust
kts
27/11:30pm 27.6 21.9 -0.5 16 13.4 ESE 19 30 10 16 1014.9 1011.0 0.0
27/11:00pm 27.9 22.3 -0.2 16 13.5 ESE 19 26 10 14 1014.9 1011.0 0.0
27/10:30pm 28.0 22.8 -0.1 16 13.5 ESE 17 24 9 13 1015.0 1011.1 0.0
27/10:00pm 28.4 22.8 0.2 16 13.7 SE 19 24 10 13 1015.1 1011.2 0.0
27/09:30pm 28.7 23.7 1.3 17 13.6 SE 17 22 9 12 1015.0 1011.1 0.0
27/09:00pm 29.2 24.3 1.7 17 13.8 SE 17 20 9 11 1014.7 1010.8 0.0
27/08:30pm 29.5 25.3 1.9 17 13.9 SE 13 19 7 10 1014.5 1010.6 0.0
27/08:00pm 30.3 26.1 1.7 16 14.4 SE 13 17 7 9 1014.3 1010.3 0.0
27/07:30pm 31.2 26.6 1.5 15 15.0 SE 15 19 8 10 1013.9 1009.9 0.0
27/07:00pm 31.9 27.2 1.1 14 15.6 ESE 15 20 8 11 1013.3 1009.4 0.0
27/06:30pm 33.1 28.0 1.0 13 16.3 ESE 17 24 9 13 1013.0 1009.1 0.0
27/06:00pm 33.9 28.0 -0.7 11 17.2 ESE 20 35 11 19 1012.6 1008.6 0.0
27/05:30pm 34.5 28.5 -1.5 10 17.7 E 20 32 11 17 1012.3 1008.3 0.0
27/05:00pm 34.5 28.1 -1.5 10 17.7 ESE 22 35 12 19 1012.1 1008.1 0.0
27/04:30pm 35.4 30.1 -0.8 10 18.1 E 17 30 9 16 1012.0 1008.0 0.0
27/04:00pm 34.8 28.1 -1.3 10 17.9 ESE 24 43 13 23 1012.1 1008.1 0.0
27/03:30pm 34.7 28.5 -0.1 11 17.5 E 22 35 12 19 1012.2 1008.2 0.0
27/03:00pm 34.8 29.0 0.0 11 17.6 E 20 30 11 16 1012.4 1008.4 0.0
27/02:30pm 34.4 29.9 2.0 13 16.9 ESE 15 24 8 13 1012.8 1008.9 0.0
27/02:00pm 35.1 28.8 1.5 12 17.4 ESE 24 43 13 23 1013.1 1009.2 0.0
27/01:30pm 33.6 28.2 2.4 14 16.3 ENE 20 30 11 16 1013.5 1009.6 0.0
27/01:00pm 33.3 28.0 3.2 15 15.9 ESE 20 33 11 18 1013.8 1009.8 0.0
27/12:30pm 33.4 28.3 4.2 16 15.6 E 20 35 11 19 1014.3 1010.3 0.0
27/12:00pm 32.8 27.4 4.6 17 15.2 ESE 22 39 12 21 1014.8 1010.9 0.0
27/11:30am 32.3 27.6 5.0 18 14.7 E 19 32 10 17 1015.3 1011.4 0.0
27/11:00am 32.0 27.0 4.7 18 14.6 E 20 37 11 20 1015.9 1011.9 0.0
27/10:30am 31.3 24.8 4.9 19 14.1 ESE 28 39 15 21 1016.4 1012.5 0.0
27/10:00am 30.3 23.8 4.9 20 13.5 E 28 37 15 20 1016.6 1012.7 0.0
27/09:30am 29.7 22.9 5.1 21 13.1 ESE 30 39 16 21 1016.8 1012.9 0.0
27/09:00am 28.4 21.1 4.6 22 12.5 E 32 44 17 24 1017.1 1013.2 0.0
27/08:30am 27.7 20.9 5.3 24 11.8 E 30 43 16 23 1017.3 1013.4 0.0
27/08:00am 26.6 19.4 5.0 25 11.3 E 32 44 17 24 1017.3 1013.4 0.0
27/07:30am 26.1 18.7 5.1 26 11.0 ESE 33 43 18 23 1017.4 1013.5 0.0
27/07:00am 25.0 18.2 5.2 28 10.3 E 30 44 16 24 1017.2 1013.3 0.0
27/06:30am 24.1 17.4 5.5 30 9.7 ESE 30 41 16 22 1016.9 1013.0 0.0
27/06:00am 23.1 17.2 6.0 33 8.9 ESE 26 33 14 18 1016.7 1012.8 0.0
27/05:30am 22.5 17.8 5.9 34 8.6 ESE 20 30 11 16 1016.4 1012.5 0.0
27/05:00am 22.6 17.9 6.0 34 8.6 ESE 20 30 11 16 1016.1 1012.1 0.0
27/04:30am 22.7 18.2 6.0 34 8.7 ESE 19 26 10 14 1015.9 1011.9 0.0
27/04:00am 22.6 18.8 6.0 34 8.6 ESE 15 22 8 12 1015.5 1011.6 0.0
27/03:30am 23.0 19.3 6.3 34 8.7 ESE 15 22 8 12 1015.4 1011.5 0.0
27/03:00am 22.8 19.4 6.1 34 8.7 ESE 13 17 7 9 1015.3 1011.4 0.0
27/02:30am 22.8 19.8 6.1 34 8.7 ESE 11 15 6 8 1015.1 1011.2 0.0
27/02:00am 23.0 20.1 6.3 34 8.7 ESE 11 13 6 7 1015.0 1011.1 0.0
27/01:30am 23.3 20.4 6.6 34 8.8 ESE 11 13 6 7 1014.9 1011.0 0.0
27/01:00am 23.7 20.8 6.5 33 9.1 ESE 11 15 6 8 1015.1 1011.2 0.0
27/12:30am 23.9 20.6 6.2 32 9.3 ESE 13 17 7 9 1015.2 1011.3 0.0
27/12:00am 23.6 20.7 6.4 33 9.0 SE 11 13 6 7 1015.3 1011.4 0.0
 
Date/Time
WST
Temp
°C
App
Temp
°C
Dew
Point
°C
Rel
Hum
%
Delta-T
°C
Wind Press
QNH
hPa
Press
MSL
hPa
Rain since
9am
mm
Dir  Spd
km/h
Gust
km/h
Spd
kts
Gust
kts
26/11:30pm 24.3 21.3 6.1 31 9.6 SE 11 15 6 8 1015.4 1011.5 0.0
26/11:00pm 24.6 21.2 5.9 30 9.8 SE 13 17 7 9 1015.5 1011.6 0.0
26/10:30pm 24.6 21.1 5.4 29 10.0 SSE 13 15 7 8 1015.6 1011.7 0.0
26/10:00pm 25.3 22.5 5.0 27 10.5 SE 9 11 5 6 1015.7 1011.8 0.0

Other formats

Comma delimited format used in spreadsheet applications
http://www.bom.gov.au/fwo/IDW60801/IDW60801.94317.axf

JavaScript Object Notation format (JSON) in row-major order
http://www.bom.gov.au/fwo/IDW60801/IDW60801.94317.json

Data quality

Most of these data are generated automatically and are frequently updated. Quality checks on data are not normally performed. It is possible for incorrect values to appear. Refer to information at About Latest Weather Observations and please check the disclaimer before using these data.